sensor_id;sensor_type;location;lat;lon;timestamp;P1;durP1;ratioP1;P2;durP2;ratioP2
57389;SDS011;43217;52.694;6.214;2022-12-05T00:01:28;34.88;;;25.73;;
57389;SDS011;43217;52.694;6.214;2022-12-05T00:03:59;35.45;;;24.98;;
57389;SDS011;43217;52.694;6.214;2022-12-05T00:06:27;33.47;;;24.60;;
57389;SDS011;43217;52.694;6.214;2022-12-05T00:08:53;33.63;;;24.88;;
57389;SDS011;43217;52.694;6.214;2022-12-05T00:11:21;35.92;;;24.38;;
57389;SDS011;43217;52.694;6.214;2022-12-05T00:13:49;35.75;;;24.20;;
57389;SDS011;43217;52.694;6.214;2022-12-05T00:16:18;36.70;;;25.30;;
57389;SDS011;43217;52.694;6.214;2022-12-05T00:18:45;36.53;;;24.65;;
57389;SDS011;43217;52.694;6.214;2022-12-05T00:21:13;35.85;;;24.67;;
57389;SDS011;43217;52.694;6.214;2022-12-05T00:23:40;33.45;;;23.48;;
57389;SDS011;43217;52.694;6.214;2022-12-05T00:26:06;32.00;;;22.95;;
57389;SDS011;43217;52.694;6.214;2022-12-05T00:28:32;32.65;;;23.55;;
57389;SDS011;43217;52.694;6.214;2022-12-05T00:31:02;30.58;;;22.65;;
57389;SDS011;43217;52.694;6.214;2022-12-05T00:33:40;31.50;;;21.65;;
57389;SDS011;43217;52.694;6.214;2022-12-05T00:36:17;36.30;;;24.92;;
57389;SDS011;43217;52.694;6.214;2022-12-05T00:38:45;29.73;;;22.13;;
57389;SDS011;43217;52.694;6.214;2022-12-05T00:41:11;31.85;;;22.55;;
57389;SDS011;43217;52.694;6.214;2022-12-05T00:43:39;31.83;;;22.38;;
57389;SDS011;43217;52.694;6.214;2022-12-05T00:46:13;30.13;;;22.23;;
57389;SDS011;43217;52.694;6.214;2022-12-05T00:48:42;30.88;;;22.17;;
57389;SDS011;43217;52.694;6.214;2022-12-05T00:53:42;29.25;;;20.58;;
57389;SDS011;43217;52.694;6.214;2022-12-05T00:56:10;29.33;;;20.93;;
57389;SDS011;43217;52.694;6.214;2022-12-05T00:58:37;28.40;;;21.05;;
57389;SDS011;43217;52.694;6.214;2022-12-05T01:03:37;29.13;;;20.88;;
57389;SDS011;43217;52.694;6.214;2022-12-05T01:06:03;27.48;;;20.50;;
57389;SDS011;43217;52.694;6.214;2022-12-05T01:08:33;26.65;;;20.00;;
57389;SDS011;43217;52.694;6.214;2022-12-05T01:10:59;26.83;;;19.48;;
57389;SDS011;43217;52.694;6.214;2022-12-05T01:13:26;27.00;;;19.70;;
57389;SDS011;43217;52.694;6.214;2022-12-05T01:15:51;27.23;;;19.25;;
57389;SDS011;43217;52.694;6.214;2022-12-05T01:18:18;27.30;;;18.95;;
57389;SDS011;43217;52.694;6.214;2022-12-05T01:20:46;28.85;;;20.33;;
57389;SDS011;43217;52.694;6.214;2022-12-05T01:23:12;26.73;;;19.00;;
57389;SDS011;43217;52.694;6.214;2022-12-05T01:25:39;24.92;;;19.40;;
57389;SDS011;43217;52.694;6.214;2022-12-05T01:28:06;27.23;;;19.13;;
57389;SDS011;43217;52.694;6.214;2022-12-05T01:30:31;27.10;;;18.80;;
57389;SDS011;43217;52.694;6.214;2022-12-05T01:32:58;27.85;;;20.42;;
57389;SDS011;43217;52.694;6.214;2022-12-05T01:35:23;26.55;;;20.02;;
57389;SDS011;43217;52.694;6.214;2022-12-05T01:37:49;29.25;;;20.92;;
57389;SDS011;43217;52.694;6.214;2022-12-05T01:40:16;27.45;;;19.80;;
57389;SDS011;43217;52.694;6.214;2022-12-05T01:42:41;28.48;;;20.85;;
57389;SDS011;43217;52.694;6.214;2022-12-05T01:45:14;26.98;;;21.55;;
57389;SDS011;43217;52.694;6.214;2022-12-05T01:47:45;30.90;;;22.40;;
57389;SDS011;43217;52.694;6.214;2022-12-05T01:50:11;31.98;;;22.35;;
57389;SDS011;43217;52.694;6.214;2022-12-05T01:52:37;30.70;;;23.20;;
57389;SDS011;43217;52.694;6.214;2022-12-05T01:55:09;30.02;;;22.05;;
57389;SDS011;43217;52.694;6.214;2022-12-05T01:57:38;31.80;;;22.88;;
57389;SDS011;43217;52.694;6.214;2022-12-05T02:00:12;31.20;;;22.98;;
57389;SDS011;43217;52.694;6.214;2022-12-05T02:05:34;33.90;;;23.48;;
57389;SDS011;43217;52.694;6.214;2022-12-05T02:08:00;32.63;;;23.10;;
57389;SDS011;43217;52.694;6.214;2022-12-05T02:10:35;34.03;;;24.13;;
57389;SDS011;43217;52.694;6.214;2022-12-05T02:13:33;34.38;;;24.45;;
57389;SDS011;43217;52.694;6.214;2022-12-05T02:21:54;36.90;;;24.15;;
57389;SDS011;43217;52.694;6.214;2022-12-05T02:27:46;39.05;;;25.58;;
57389;SDS011;43217;52.694;6.214;2022-12-05T02:30:35;39.17;;;27.00;;
57389;SDS011;43217;52.694;6.214;2022-12-05T02:41:16;39.88;;;27.27;;
57389;SDS011;43217;52.694;6.214;2022-12-05T02:46:51;42.33;;;27.83;;
57389;SDS011;43217;52.694;6.214;2022-12-05T02:49:21;41.47;;;27.65;;
57389;SDS011;43217;52.694;6.214;2022-12-05T02:51:51;42.10;;;27.77;;
57389;SDS011;43217;52.694;6.214;2022-12-05T02:54:27;44.17;;;28.15;;
57389;SDS011;43217;52.694;6.214;2022-12-05T02:56:57;43.33;;;28.52;;
57389;SDS011;43217;52.694;6.214;2022-12-05T02:59:24;45.10;;;28.40;;
57389;SDS011;43217;52.694;6.214;2022-12-05T03:01:49;45.05;;;28.30;;
57389;SDS011;43217;52.694;6.214;2022-12-05T03:04:16;43.83;;;28.33;;
57389;SDS011;43217;52.694;6.214;2022-12-05T03:06:48;46.33;;;27.85;;
57389;SDS011;43217;52.694;6.214;2022-12-05T03:09:19;45.78;;;28.98;;
57389;SDS011;43217;52.694;6.214;2022-12-05T03:14:30;47.78;;;31.00;;
57389;SDS011;43217;52.694;6.214;2022-12-05T03:17:01;48.45;;;30.30;;
57389;SDS011;43217;52.694;6.214;2022-12-05T03:19:36;46.67;;;29.45;;
57389;SDS011;43217;52.694;6.214;2022-12-05T03:24:59;49.00;;;30.40;;
57389;SDS011;43217;52.694;6.214;2022-12-05T03:27:29;50.25;;;30.80;;
57389;SDS011;43217;52.694;6.214;2022-12-05T03:30:09;50.92;;;31.73;;
57389;SDS011;43217;52.694;6.214;2022-12-05T03:33:01;50.90;;;30.00;;
57389;SDS011;43217;52.694;6.214;2022-12-05T03:38:48;54.92;;;32.60;;
57389;SDS011;43217;52.694;6.214;2022-12-05T03:43:54;56.17;;;33.97;;
57389;SDS011;43217;52.694;6.214;2022-12-05T03:46:39;60.67;;;34.80;;
57389;SDS011;43217;52.694;6.214;2022-12-05T03:49:29;58.47;;;34.47;;
57389;SDS011;43217;52.694;6.214;2022-12-05T03:52:14;56.53;;;33.95;;
57389;SDS011;43217;52.694;6.214;2022-12-05T03:54:54;58.65;;;33.78;;
57389;SDS011;43217;52.694;6.214;2022-12-05T03:57:24;57.85;;;34.17;;
57389;SDS011;43217;52.694;6.214;2022-12-05T03:59:54;61.95;;;35.17;;
57389;SDS011;43217;52.694;6.214;2022-12-05T04:02:25;56.78;;;33.92;;
57389;SDS011;43217;52.694;6.214;2022-12-05T04:07:28;57.17;;;32.92;;
57389;SDS011;43217;52.694;6.214;2022-12-05T04:09:58;57.05;;;33.45;;
57389;SDS011;43217;52.694;6.214;2022-12-05T04:12:30;54.63;;;32.60;;
57389;SDS011;43217;52.694;6.214;2022-12-05T04:15:00;50.15;;;30.92;;
57389;SDS011;43217;52.694;6.214;2022-12-05T04:20:27;53.83;;;31.58;;
57389;SDS011;43217;52.694;6.214;2022-12-05T04:23:18;53.85;;;32.05;;
57389;SDS011;43217;52.694;6.214;2022-12-05T04:26:00;50.22;;;31.30;;
57389;SDS011;43217;52.694;6.214;2022-12-05T04:28:43;52.75;;;30.98;;
57389;SDS011;43217;52.694;6.214;2022-12-05T04:31:22;48.50;;;31.23;;
57389;SDS011;43217;52.694;6.214;2022-12-05T04:33:51;51.75;;;31.40;;
57389;SDS011;43217;52.694;6.214;2022-12-05T04:36:21;50.42;;;30.33;;
57389;SDS011;43217;52.694;6.214;2022-12-05T04:44:28;48.13;;;28.73;;
57389;SDS011;43217;52.694;6.214;2022-12-05T04:47:01;40.65;;;26.00;;
57389;SDS011;43217;52.694;6.214;2022-12-05T04:49:29;40.25;;;26.75;;
57389;SDS011;43217;52.694;6.214;2022-12-05T04:54:42;35.38;;;24.75;;
57389;SDS011;43217;52.694;6.214;2022-12-05T05:00:12;37.80;;;23.90;;
57389;SDS011;43217;52.694;6.214;2022-12-05T05:02:40;36.60;;;22.85;;
57389;SDS011;43217;52.694;6.214;2022-12-05T05:05:13;33.08;;;22.40;;
57389;SDS011;43217;52.694;6.214;2022-12-05T05:07:46;31.95;;;21.27;;
57389;SDS011;43217;52.694;6.214;2022-12-05T05:10:15;30.73;;;21.35;;
57389;SDS011;43217;52.694;6.214;2022-12-05T05:12:49;29.83;;;22.45;;
57389;SDS011;43217;52.694;6.214;2022-12-05T05:15:15;31.58;;;22.35;;
57389;SDS011;43217;52.694;6.214;2022-12-05T05:17:41;29.55;;;20.42;;
57389;SDS011;43217;52.694;6.214;2022-12-05T05:20:07;26.60;;;20.58;;
57389;SDS011;43217;52.694;6.214;2022-12-05T05:22:48;26.65;;;19.65;;
57389;SDS011;43217;52.694;6.214;2022-12-05T05:25:23;25.77;;;19.48;;
57389;SDS011;43217;52.694;6.214;2022-12-05T05:27:50;24.67;;;19.45;;
57389;SDS011;43217;52.694;6.214;2022-12-05T05:30:19;24.63;;;18.33;;
57389;SDS011;43217;52.694;6.214;2022-12-05T05:32:45;25.25;;;20.23;;
57389;SDS011;43217;52.694;6.214;2022-12-05T05:35:11;25.45;;;19.60;;
57389;SDS011;43217;52.694;6.214;2022-12-05T05:37:38;23.27;;;18.17;;
57389;SDS011;43217;52.694;6.214;2022-12-05T05:40:05;23.73;;;18.90;;
57389;SDS011;43217;52.694;6.214;2022-12-05T05:42:31;24.70;;;17.73;;
57389;SDS011;43217;52.694;6.214;2022-12-05T05:44:57;23.17;;;17.98;;
57389;SDS011;43217;52.694;6.214;2022-12-05T05:47:23;23.15;;;18.35;;
57389;SDS011;43217;52.694;6.214;2022-12-05T05:49:48;21.58;;;18.17;;
57389;SDS011;43217;52.694;6.214;2022-12-05T05:52:14;20.23;;;17.63;;
57389;SDS011;43217;52.694;6.214;2022-12-05T05:54:39;21.90;;;17.70;;
57389;SDS011;43217;52.694;6.214;2022-12-05T05:57:05;21.27;;;18.25;;
57389;SDS011;43217;52.694;6.214;2022-12-05T05:59:31;20.92;;;17.17;;
57389;SDS011;43217;52.694;6.214;2022-12-05T06:01:56;17.98;;;15.88;;
57389;SDS011;43217;52.694;6.214;2022-12-05T06:04:22;16.45;;;14.45;;
57389;SDS011;43217;52.694;6.214;2022-12-05T06:06:48;15.65;;;13.68;;
57389;SDS011;43217;52.694;6.214;2022-12-05T06:09:13;16.65;;;13.77;;
57389;SDS011;43217;52.694;6.214;2022-12-05T06:11:39;15.05;;;13.32;;
57389;SDS011;43217;52.694;6.214;2022-12-05T06:14:05;15.38;;;13.82;;
57389;SDS011;43217;52.694;6.214;2022-12-05T06:16:30;13.57;;;12.18;;
57389;SDS011;43217;52.694;6.214;2022-12-05T06:18:56;13.10;;;11.63;;
57389;SDS011;43217;52.694;6.214;2022-12-05T06:21:23;12.32;;;11.13;;
57389;SDS011;43217;52.694;6.214;2022-12-05T06:23:49;11.93;;;10.70;;
57389;SDS011;43217;52.694;6.214;2022-12-05T06:26:16;11.73;;;10.40;;
57389;SDS011;43217;52.694;6.214;2022-12-05T06:28:43;11.93;;;10.50;;
57389;SDS011;43217;52.694;6.214;2022-12-05T06:31:10;11.00;;;9.90;;
57389;SDS011;43217;52.694;6.214;2022-12-05T06:33:41;10.30;;;9.30;;
57389;SDS011;43217;52.694;6.214;2022-12-05T06:36:07;11.90;;;10.70;;
57389;SDS011;43217;52.694;6.214;2022-12-05T06:38:35;10.77;;;9.68;;
57389;SDS011;43217;52.694;6.214;2022-12-05T06:41:03;11.27;;;9.98;;
57389;SDS011;43217;52.694;6.214;2022-12-05T06:43:30;11.10;;;10.00;;
57389;SDS011;43217;52.694;6.214;2022-12-05T06:45:56;10.68;;;9.68;;
57389;SDS011;43217;52.694;6.214;2022-12-05T06:48:21;12.57;;;9.90;;
57389;SDS011;43217;52.694;6.214;2022-12-05T06:50:50;11.65;;;10.45;;
57389;SDS011;43217;52.694;6.214;2022-12-05T06:53:17;10.68;;;9.65;;
57389;SDS011;43217;52.694;6.214;2022-12-05T06:55:44;11.87;;;10.73;;
57389;SDS011;43217;52.694;6.214;2022-12-05T06:58:19;11.57;;;10.45;;
57389;SDS011;43217;52.694;6.214;2022-12-05T07:00:45;13.05;;;11.48;;
57389;SDS011;43217;52.694;6.214;2022-12-05T07:03:43;18.95;;;15.13;;
57389;SDS011;43217;52.694;6.214;2022-12-05T07:06:08;12.57;;;11.27;;
57389;SDS011;43217;52.694;6.214;2022-12-05T07:08:34;14.38;;;13.15;;
57389;SDS011;43217;52.694;6.214;2022-12-05T07:11:00;11.70;;;10.52;;
57389;SDS011;43217;52.694;6.214;2022-12-05T07:13:26;12.43;;;9.93;;
57389;SDS011;43217;52.694;6.214;2022-12-05T07:15:52;10.93;;;9.82;;
57389;SDS011;43217;52.694;6.214;2022-12-05T07:18:18;11.18;;;10.00;;
57389;SDS011;43217;52.694;6.214;2022-12-05T07:20:43;12.55;;;11.43;;
57389;SDS011;43217;52.694;6.214;2022-12-05T07:23:09;15.05;;;13.63;;
57389;SDS011;43217;52.694;6.214;2022-12-05T07:25:45;12.68;;;11.38;;
57389;SDS011;43217;52.694;6.214;2022-12-05T07:28:10;9.30;;;8.40;;
57389;SDS011;43217;52.694;6.214;2022-12-05T07:30:36;18.80;;;16.92;;
57389;SDS011;43217;52.694;6.214;2022-12-05T07:33:02;8.80;;;7.93;;
57389;SDS011;43217;52.694;6.214;2022-12-05T07:35:28;8.85;;;7.97;;
57389;SDS011;43217;52.694;6.214;2022-12-05T07:37:53;8.48;;;7.75;;
57389;SDS011;43217;52.694;6.214;2022-12-05T07:40:19;8.40;;;7.50;;
57389;SDS011;43217;52.694;6.214;2022-12-05T07:42:47;13.82;;;12.63;;
57389;SDS011;43217;52.694;6.214;2022-12-05T07:47:38;9.07;;;8.18;;
57389;SDS011;43217;52.694;6.214;2022-12-05T07:50:04;10.60;;;9.57;;
57389;SDS011;43217;52.694;6.214;2022-12-05T07:52:30;9.85;;;8.85;;
57389;SDS011;43217;52.694;6.214;2022-12-05T07:54:55;8.52;;;7.45;;
57389;SDS011;43217;52.694;6.214;2022-12-05T07:57:22;9.32;;;7.90;;
57389;SDS011;43217;52.694;6.214;2022-12-05T07:59:48;10.40;;;9.40;;
57389;SDS011;43217;52.694;6.214;2022-12-05T08:02:13;8.88;;;7.97;;
57389;SDS011;43217;52.694;6.214;2022-12-05T08:04:39;10.27;;;8.60;;
57389;SDS011;43217;52.694;6.214;2022-12-05T08:07:04;9.18;;;7.85;;
57389;SDS011;43217;52.694;6.214;2022-12-05T08:09:30;8.55;;;7.65;;
57389;SDS011;43217;52.694;6.214;2022-12-05T08:11:56;9.88;;;8.70;;
57389;SDS011;43217;52.694;6.214;2022-12-05T08:14:21;12.27;;;10.98;;
57389;SDS011;43217;52.694;6.214;2022-12-05T08:16:47;28.25;;;22.70;;
57389;SDS011;43217;52.694;6.214;2022-12-05T08:19:12;10.65;;;9.15;;
57389;SDS011;43217;52.694;6.214;2022-12-05T08:21:39;12.55;;;10.32;;
57389;SDS011;43217;52.694;6.214;2022-12-05T08:24:05;24.30;;;17.90;;
57389;SDS011;43217;52.694;6.214;2022-12-05T08:26:32;11.82;;;10.57;;
57389;SDS011;43217;52.694;6.214;2022-12-05T08:28:59;12.98;;;10.48;;
57389;SDS011;43217;52.694;6.214;2022-12-05T08:31:40;14.82;;;13.25;;
57389;SDS011;43217;52.694;6.214;2022-12-05T08:34:09;11.93;;;10.20;;
57389;SDS011;43217;52.694;6.214;2022-12-05T08:36:36;10.40;;;9.32;;
57389;SDS011;43217;52.694;6.214;2022-12-05T08:39:03;13.23;;;11.90;;
57389;SDS011;43217;52.694;6.214;2022-12-05T08:41:30;23.20;;;18.98;;
57389;SDS011;43217;52.694;6.214;2022-12-05T08:43:59;15.52;;;11.75;;
57389;SDS011;43217;52.694;6.214;2022-12-05T08:46:33;11.40;;;10.30;;
57389;SDS011;43217;52.694;6.214;2022-12-05T08:49:01;17.65;;;14.90;;
57389;SDS011;43217;52.694;6.214;2022-12-05T08:51:27;14.88;;;12.32;;
57389;SDS011;43217;52.694;6.214;2022-12-05T08:53:52;12.63;;;11.32;;
57389;SDS011;43217;52.694;6.214;2022-12-05T08:56:20;13.10;;;9.82;;
57389;SDS011;43217;52.694;6.214;2022-12-05T08:58:46;12.88;;;11.35;;
57389;SDS011;43217;52.694;6.214;2022-12-05T09:01:12;14.40;;;12.90;;
57389;SDS011;43217;52.694;6.214;2022-12-05T09:03:40;10.77;;;9.50;;
57389;SDS011;43217;52.694;6.214;2022-12-05T09:06:10;13.27;;;10.60;;
57389;SDS011;43217;52.694;6.214;2022-12-05T09:08:38;11.13;;;9.93;;
57389;SDS011;43217;52.694;6.214;2022-12-05T09:11:10;12.45;;;11.05;;
57389;SDS011;43217;52.694;6.214;2022-12-05T09:13:40;13.82;;;11.10;;
57389;SDS011;43217;52.694;6.214;2022-12-05T09:16:10;11.52;;;9.90;;
57389;SDS011;43217;52.694;6.214;2022-12-05T09:18:38;17.10;;;14.45;;
57389;SDS011;43217;52.694;6.214;2022-12-05T09:21:05;14.05;;;10.60;;
57389;SDS011;43217;52.694;6.214;2022-12-05T09:23:31;13.57;;;10.73;;
57389;SDS011;43217;52.694;6.214;2022-12-05T09:25:56;14.60;;;12.80;;
57389;SDS011;43217;52.694;6.214;2022-12-05T09:28:29;13.77;;;10.73;;
57389;SDS011;43217;52.694;6.214;2022-12-05T09:30:56;16.25;;;12.07;;
57389;SDS011;43217;52.694;6.214;2022-12-05T09:33:30;15.10;;;12.57;;
57389;SDS011;43217;52.694;6.214;2022-12-05T09:36:01;12.77;;;10.50;;
57389;SDS011;43217;52.694;6.214;2022-12-05T09:38:28;15.45;;;10.93;;
57389;SDS011;43217;52.694;6.214;2022-12-05T09:41:04;11.80;;;9.30;;
57389;SDS011;43217;52.694;6.214;2022-12-05T09:51:45;11.88;;;10.40;;
57389;SDS011;43217;52.694;6.214;2022-12-05T09:54:13;11.48;;;8.65;;
57389;SDS011;43217;52.694;6.214;2022-12-05T09:56:39;12.52;;;9.18;;
57389;SDS011;43217;52.694;6.214;2022-12-05T09:59:13;13.60;;;10.10;;
57389;SDS011;43217;52.694;6.214;2022-12-05T10:08:02;11.95;;;9.18;;
57389;SDS011;43217;52.694;6.214;2022-12-05T10:16:07;12.75;;;9.75;;
57389;SDS011;43217;52.694;6.214;2022-12-05T10:18:51;12.70;;;9.95;;
57389;SDS011;43217;52.694;6.214;2022-12-05T10:24:01;12.63;;;10.30;;
57389;SDS011;43217;52.694;6.214;2022-12-05T10:26:37;13.43;;;10.50;;
57389;SDS011;43217;52.694;6.214;2022-12-05T10:31:53;13.50;;;9.63;;
57389;SDS011;43217;52.694;6.214;2022-12-05T10:34:41;14.27;;;9.88;;
57389;SDS011;43217;52.694;6.214;2022-12-05T10:39:40;14.05;;;10.57;;
57389;SDS011;43217;52.694;6.214;2022-12-05T10:42:09;12.50;;;10.27;;
57389;SDS011;43217;52.694;6.214;2022-12-05T10:44:40;15.38;;;10.52;;
57389;SDS011;43217;52.694;6.214;2022-12-05T10:47:06;15.25;;;10.25;;
57389;SDS011;43217;52.694;6.214;2022-12-05T10:49:33;13.82;;;11.07;;
57389;SDS011;43217;52.694;6.214;2022-12-05T10:51:59;12.43;;;9.80;;
57389;SDS011;43217;52.694;6.214;2022-12-05T10:54:27;13.35;;;10.38;;
57389;SDS011;43217;52.694;6.214;2022-12-05T10:56:55;12.23;;;10.15;;
57389;SDS011;43217;52.694;6.214;2022-12-05T10:59:25;15.13;;;10.32;;
57389;SDS011;43217;52.694;6.214;2022-12-05T11:02:14;14.38;;;10.85;;
57389;SDS011;43217;52.694;6.214;2022-12-05T11:04:45;15.38;;;9.95;;
57389;SDS011;43217;52.694;6.214;2022-12-05T11:07:26;13.38;;;10.10;;
57389;SDS011;43217;52.694;6.214;2022-12-05T11:10:01;17.17;;;10.80;;
57389;SDS011;43217;52.694;6.214;2022-12-05T11:12:42;13.90;;;10.93;;
57389;SDS011;43217;52.694;6.214;2022-12-05T11:17:43;19.25;;;14.27;;
57389;SDS011;43217;52.694;6.214;2022-12-05T11:22:45;14.90;;;10.70;;
57389;SDS011;43217;52.694;6.214;2022-12-05T11:25:32;12.23;;;10.50;;
57389;SDS011;43217;52.694;6.214;2022-12-05T11:28:08;12.30;;;9.80;;
57389;SDS011;43217;52.694;6.214;2022-12-05T11:33:26;13.73;;;10.68;;
57389;SDS011;43217;52.694;6.214;2022-12-05T11:35:54;12.50;;;10.25;;
57389;SDS011;43217;52.694;6.214;2022-12-05T11:38:27;13.00;;;9.68;;
57389;SDS011;43217;52.694;6.214;2022-12-05T11:41:19;11.52;;;9.25;;
57389;SDS011;43217;52.694;6.214;2022-12-05T11:46:57;14.98;;;12.32;;
57389;SDS011;43217;52.694;6.214;2022-12-05T11:52:37;14.27;;;10.43;;
57389;SDS011;43217;52.694;6.214;2022-12-05T11:55:24;11.13;;;9.40;;
57389;SDS011;43217;52.694;6.214;2022-12-05T12:03:42;12.20;;;9.48;;
57389;SDS011;43217;52.694;6.214;2022-12-05T12:09:06;11.98;;;9.13;;
57389;SDS011;43217;52.694;6.214;2022-12-05T12:22:53;11.57;;;9.95;;
57389;SDS011;43217;52.694;6.214;2022-12-05T12:28:42;18.73;;;16.77;;
57389;SDS011;43217;52.694;6.214;2022-12-05T12:33:56;16.98;;;15.02;;
57389;SDS011;43217;52.694;6.214;2022-12-05T12:36:47;14.43;;;10.75;;
57389;SDS011;43217;52.694;6.214;2022-12-05T12:39:24;12.05;;;10.75;;
57389;SDS011;43217;52.694;6.214;2022-12-05T12:42:07;12.18;;;9.40;;
57389;SDS011;43217;52.694;6.214;2022-12-05T12:52:46;12.77;;;10.35;;
57389;SDS011;43217;52.694;6.214;2022-12-05T12:55:40;12.25;;;10.02;;
57389;SDS011;43217;52.694;6.214;2022-12-05T13:01:11;13.10;;;9.35;;
57389;SDS011;43217;52.694;6.214;2022-12-05T13:06:48;13.13;;;9.82;;
57389;SDS011;43217;52.694;6.214;2022-12-05T13:09:26;10.80;;;8.27;;
57389;SDS011;43217;52.694;6.214;2022-12-05T13:12:07;10.60;;;8.90;;
57389;SDS011;43217;52.694;6.214;2022-12-05T13:14:37;11.13;;;8.70;;
57389;SDS011;43217;52.694;6.214;2022-12-05T13:17:10;9.27;;;7.65;;
57389;SDS011;43217;52.694;6.214;2022-12-05T13:22:09;8.38;;;7.45;;
57389;SDS011;43217;52.694;6.214;2022-12-05T13:24:37;13.15;;;8.88;;
57389;SDS011;43217;52.694;6.214;2022-12-05T13:27:04;10.77;;;8.93;;
57389;SDS011;43217;52.694;6.214;2022-12-05T13:29:38;10.35;;;9.25;;
57389;SDS011;43217;52.694;6.214;2022-12-05T13:35:16;11.07;;;9.13;;
57389;SDS011;43217;52.694;6.214;2022-12-05T13:38:03;9.63;;;8.63;;
57389;SDS011;43217;52.694;6.214;2022-12-05T13:41:02;10.88;;;8.57;;
57389;SDS011;43217;52.694;6.214;2022-12-05T13:43:47;10.70;;;8.38;;
57389;SDS011;43217;52.694;6.214;2022-12-05T13:46:25;9.27;;;8.20;;
57389;SDS011;43217;52.694;6.214;2022-12-05T13:49:03;11.20;;;8.88;;
57389;SDS011;43217;52.694;6.214;2022-12-05T13:51:38;10.38;;;8.27;;
57389;SDS011;43217;52.694;6.214;2022-12-05T13:54:17;9.65;;;7.88;;
57389;SDS011;43217;52.694;6.214;2022-12-05T13:56:48;8.73;;;7.93;;
57389;SDS011;43217;52.694;6.214;2022-12-05T14:03:13;9.85;;;7.45;;
57389;SDS011;43217;52.694;6.214;2022-12-05T14:05:34;11.10;;;8.90;;
57389;SDS011;43217;52.694;6.214;2022-12-05T14:21:38;11.25;;;9.32;;
57389;SDS011;43217;52.694;6.214;2022-12-05T14:24:30;18.23;;;16.38;;
57389;SDS011;43217;52.694;6.214;2022-12-05T14:29:53;9.50;;;6.57;;
57389;SDS011;43217;52.694;6.214;2022-12-05T14:35:00;9.90;;;8.55;;
57389;SDS011;43217;52.694;6.214;2022-12-05T14:37:39;8.15;;;7.22;;
57389;SDS011;43217;52.694;6.214;2022-12-05T14:43:00;10.07;;;8.63;;
57389;SDS011;43217;52.694;6.214;2022-12-05T14:45:29;9.25;;;7.07;;
57389;SDS011;43217;52.694;6.214;2022-12-05T14:48:00;9.82;;;6.53;;
57389;SDS011;43217;52.694;6.214;2022-12-05T14:55:49;7.47;;;6.63;;
57389;SDS011;43217;52.694;6.214;2022-12-05T14:58:31;9.60;;;6.80;;
57389;SDS011;43217;52.694;6.214;2022-12-05T15:03:38;11.70;;;8.60;;
57389;SDS011;43217;52.694;6.214;2022-12-05T15:06:22;7.20;;;5.67;;
57389;SDS011;43217;52.694;6.214;2022-12-05T15:08:50;7.65;;;6.72;;
57389;SDS011;43217;52.694;6.214;2022-12-05T15:11:21;9.07;;;5.90;;
57389;SDS011;43217;52.694;6.214;2022-12-05T15:13:57;8.80;;;6.63;;
57389;SDS011;43217;52.694;6.214;2022-12-05T15:16:37;7.65;;;6.43;;
57389;SDS011;43217;52.694;6.214;2022-12-05T15:19:08;15.15;;;13.75;;
57389;SDS011;43217;52.694;6.214;2022-12-05T15:21:54;7.97;;;7.18;;
57389;SDS011;43217;52.694;6.214;2022-12-05T15:24:25;9.68;;;6.43;;
57389;SDS011;43217;52.694;6.214;2022-12-05T15:26:52;9.60;;;7.15;;
57389;SDS011;43217;52.694;6.214;2022-12-05T15:32:05;10.43;;;8.00;;
57389;SDS011;43217;52.694;6.214;2022-12-05T15:35:00;9.80;;;8.73;;
57389;SDS011;43217;52.694;6.214;2022-12-05T15:42:52;11.80;;;10.43;;
57389;SDS011;43217;52.694;6.214;2022-12-05T15:45:18;10.30;;;7.93;;
57389;SDS011;43217;52.694;6.214;2022-12-05T15:58:25;12.90;;;10.68;;
57389;SDS011;43217;52.694;6.214;2022-12-05T16:01:13;12.05;;;9.40;;
57389;SDS011;43217;52.694;6.214;2022-12-05T16:04:06;11.63;;;8.23;;
57389;SDS011;43217;52.694;6.214;2022-12-05T16:09:19;11.07;;;8.00;;
57389;SDS011;43217;52.694;6.214;2022-12-05T16:11:53;12.27;;;8.63;;
57389;SDS011;43217;52.694;6.214;2022-12-05T16:14:21;10.32;;;8.57;;
57389;SDS011;43217;52.694;6.214;2022-12-05T16:19:24;10.13;;;7.25;;
57389;SDS011;43217;52.694;6.214;2022-12-05T16:24:44;10.35;;;7.78;;
57389;SDS011;43217;52.694;6.214;2022-12-05T16:38:04;12.13;;;9.25;;
57389;SDS011;43217;52.694;6.214;2022-12-05T16:40:30;14.77;;;9.38;;
57389;SDS011;43217;52.694;6.214;2022-12-05T16:43:04;11.32;;;8.55;;
57389;SDS011;43217;52.694;6.214;2022-12-05T16:45:42;11.63;;;8.27;;
57389;SDS011;43217;52.694;6.214;2022-12-05T16:48:30;10.95;;;7.68;;
57389;SDS011;43217;52.694;6.214;2022-12-05T16:51:29;10.53;;;8.70;;
57389;SDS011;43217;52.694;6.214;2022-12-05T16:53:52;9.98;;;8.40;;
57389;SDS011;43217;52.694;6.214;2022-12-05T16:56:23;16.08;;;11.43;;
57389;SDS011;43217;52.694;6.214;2022-12-05T16:58:54;10.43;;;7.45;;
57389;SDS011;43217;52.694;6.214;2022-12-05T17:01:24;20.95;;;16.90;;
57389;SDS011;43217;52.694;6.214;2022-12-05T17:03:51;11.63;;;9.07;;
57389;SDS011;43217;52.694;6.214;2022-12-05T17:06:18;22.13;;;17.30;;
57389;SDS011;43217;52.694;6.214;2022-12-05T17:08:45;14.15;;;10.38;;
57389;SDS011;43217;52.694;6.214;2022-12-05T17:11:13;12.02;;;10.00;;
57389;SDS011;43217;52.694;6.214;2022-12-05T17:13:41;10.45;;;7.97;;
57389;SDS011;43217;52.694;6.214;2022-12-05T17:16:09;11.20;;;8.23;;
57389;SDS011;43217;52.694;6.214;2022-12-05T17:18:34;17.05;;;12.80;;
57389;SDS011;43217;52.694;6.214;2022-12-05T17:21:00;22.35;;;19.25;;
57389;SDS011;43217;52.694;6.214;2022-12-05T17:23:27;19.08;;;17.15;;
57389;SDS011;43217;52.694;6.214;2022-12-05T17:25:53;13.73;;;8.73;;
57389;SDS011;43217;52.694;6.214;2022-12-05T17:28:21;11.32;;;9.38;;
57389;SDS011;43217;52.694;6.214;2022-12-05T17:30:47;15.10;;;13.68;;
57389;SDS011;43217;52.694;6.214;2022-12-05T17:33:14;10.07;;;8.73;;
57389;SDS011;43217;52.694;6.214;2022-12-05T17:35:41;9.48;;;6.95;;
57389;SDS011;43217;52.694;6.214;2022-12-05T17:38:07;8.68;;;7.85;;
57389;SDS011;43217;52.694;6.214;2022-12-05T17:40:34;11.25;;;9.13;;
57389;SDS011;43217;52.694;6.214;2022-12-05T17:43:00;15.13;;;12.77;;
57389;SDS011;43217;52.694;6.214;2022-12-05T17:45:26;13.68;;;10.45;;
57389;SDS011;43217;52.694;6.214;2022-12-05T17:47:51;12.27;;;8.25;;
57389;SDS011;43217;52.694;6.214;2022-12-05T17:50:19;24.40;;;22.17;;
57389;SDS011;43217;52.694;6.214;2022-12-05T17:52:50;11.35;;;8.82;;
57389;SDS011;43217;52.694;6.214;2022-12-05T17:55:19;14.60;;;11.95;;
57389;SDS011;43217;52.694;6.214;2022-12-05T17:57:51;9.50;;;7.90;;
57389;SDS011;43217;52.694;6.214;2022-12-05T18:00:18;14.10;;;12.68;;
57389;SDS011;43217;52.694;6.214;2022-12-05T18:02:51;12.23;;;10.13;;
57389;SDS011;43217;52.694;6.214;2022-12-05T18:05:16;10.30;;;8.40;;
57389;SDS011;43217;52.694;6.214;2022-12-05T18:07:43;17.35;;;14.20;;
57389;SDS011;43217;52.694;6.214;2022-12-05T18:10:11;11.70;;;9.03;;
57389;SDS011;43217;52.694;6.214;2022-12-05T18:12:39;10.05;;;6.78;;
57389;SDS011;43217;52.694;6.214;2022-12-05T18:15:05;16.50;;;14.48;;
57389;SDS011;43217;52.694;6.214;2022-12-05T18:17:31;9.60;;;8.18;;
57389;SDS011;43217;52.694;6.214;2022-12-05T18:19:57;13.77;;;11.85;;
57389;SDS011;43217;52.694;6.214;2022-12-05T18:22:23;12.00;;;10.75;;
57389;SDS011;43217;52.694;6.214;2022-12-05T18:24:50;9.40;;;7.30;;
57389;SDS011;43217;52.694;6.214;2022-12-05T18:27:16;9.32;;;7.32;;